Terminal Aerodrome Forecast
Issued by NWS

Home | Current Version | Previous Version | Text Only | Print | Product List | Glossary Off
Versions: 1 2 3 4 5 6 7 8 9 10 11 12 13 14 15 16 17 18 19 20 21 22 23

000
FTUS43 KGRB 161136
TAFATW
TAF
KATW 161136Z 1612/1712 06007KT P6SM -SN SCT018 OVC030
     FM161500 04009KT P6SM SCT012 BKN025
      TEMPO 1615/1619 -SN BKN012
     FM161900 07008KT P6SM SCT020 OVC035
     FM170100 06007KT P6SM SCT010 OVC024=

USA.gov is the U.S. government's official web portal to all federal, state and local government web resources and services.